Terminal Aerodrome Forecast
Issued by NWS

Current Version | Previous Version | Graphics & Text | Print | Product List | Glossary On
Versions: 1 2 3 4 5 6 7 8 9 10 11 12 13 14 15 16 17 18 19 20 21
000
FTUS41 KILN 180534
TAFLUK
TAF
KLUK 180534Z 1806/1906 22004KT P6SM SCT250
     FM181200 21007KT P6SM BKN200
     FM181800 23010KT P6SM OVC100
     FM190000 21005KT P6SM VCSH OVC035
     FM190400 24005KT P6SM OVC028=

USA.gov is the U.S. government's official web portal to all federal, state and local government web resources and services.